sensor_id;sensor_type;location;lat;lon;timestamp;pressure;altitude;pressure_sealevel;temperature;humidity
75668;BME280;64266;48.798;44.756;2023-02-20T00:01:32;100453.75;;;3.07;65.37
75668;BME280;64266;48.798;44.756;2023-02-20T00:06:35;100465.50;;;3.11;65.83
75668;BME280;64266;48.798;44.756;2023-02-20T00:11:38;100457.38;;;3.06;66.19
75668;BME280;64266;48.798;44.756;2023-02-20T00:16:45;100424.88;;;2.93;66.35
75668;BME280;64266;48.798;44.756;2023-02-20T00:21:49;100434.88;;;3.12;67.26
75668;BME280;64266;48.798;44.756;2023-02-20T00:26:55;100407.06;;;3.11;66.24
75668;BME280;64266;48.798;44.756;2023-02-20T00:31:57;100410.09;;;3.00;66.64
75668;BME280;64266;48.798;44.756;2023-02-20T00:37:01;100446.34;;;3.11;67.24
75668;BME280;64266;48.798;44.756;2023-02-20T00:42:03;100394.16;;;2.87;66.57
75668;BME280;64266;48.798;44.756;2023-02-20T00:47:09;100439.59;;;3.16;67.24
75668;BME280;64266;48.798;44.756;2023-02-20T00:52:14;100421.88;;;3.04;66.49
75668;BME280;64266;48.798;44.756;2023-02-20T00:57:17;100431.28;;;3.13;67.18
75668;BME280;64266;48.798;44.756;2023-02-20T01:02:19;100400.25;;;3.02;66.74
75668;BME280;64266;48.798;44.756;2023-02-20T01:07:23;100427.88;;;3.27;66.04
75668;BME280;64266;48.798;44.756;2023-02-20T01:12:26;100400.72;;;3.05;67.22
75668;BME280;64266;48.798;44.756;2023-02-20T01:17:29;100436.56;;;3.27;66.41
75668;BME280;64266;48.798;44.756;2023-02-20T01:22:32;100449.91;;;3.33;65.38
75668;BME280;64266;48.798;44.756;2023-02-20T01:27:35;100428.53;;;3.29;65.88
75668;BME280;64266;48.798;44.756;2023-02-20T01:32:38;100414.16;;;3.25;66.19
75668;BME280;64266;48.798;44.756;2023-02-20T01:37:42;100430.56;;;3.19;65.39
75668;BME280;64266;48.798;44.756;2023-02-20T01:42:44;100415.22;;;3.16;66.91
75668;BME280;64266;48.798;44.756;2023-02-20T01:47:49;100412.25;;;3.19;66.41
75668;BME280;64266;48.798;44.756;2023-02-20T01:52:56;100439.41;;;3.18;66.15
75668;BME280;64266;48.798;44.756;2023-02-20T01:58:18;100441.41;;;3.16;66.34
75668;BME280;64266;48.798;44.756;2023-02-20T02:03:27;100447.47;;;3.16;65.35
75668;BME280;64266;48.798;44.756;2023-02-20T02:08:35;100446.81;;;3.14;66.14
75668;BME280;64266;48.798;44.756;2023-02-20T02:13:41;100475.75;;;3.21;66.09
75668;BME280;64266;48.798;44.756;2023-02-20T02:40:42;100473.47;;;3.18;66.32
75668;BME280;64266;48.798;44.756;2023-02-20T02:45:54;100498.09;;;3.09;65.90
75668;BME280;64266;48.798;44.756;2023-02-20T02:51:02;100470.19;;;3.01;66.27
75668;BME280;64266;48.798;44.756;2023-02-20T02:56:10;100452.38;;;2.97;66.93
75668;BME280;64266;48.798;44.756;2023-02-20T03:01:27;100454.13;;;3.04;65.89
75668;BME280;64266;48.798;44.756;2023-02-20T03:06:34;100480.88;;;3.14;65.89
75668;BME280;64266;48.798;44.756;2023-02-20T03:11:40;100495.00;;;3.28;66.58
75668;BME280;64266;48.798;44.756;2023-02-20T03:17:28;100481.91;;;3.28;66.73
75668;BME280;64266;48.798;44.756;2023-02-20T03:22:18;100469.28;;;3.32;65.77
75668;BME280;64266;48.798;44.756;2023-02-20T03:28:10;100479.59;;;3.48;65.38
75668;BME280;64266;48.798;44.756;2023-02-20T03:33:07;100479.19;;;3.59;65.14
75668;BME280;64266;48.798;44.756;2023-02-20T03:38:33;100399.03;;;3.12;64.85
75668;BME280;64266;48.798;44.756;2023-02-20T03:43:59;100445.97;;;3.51;64.02
75668;BME280;64266;48.798;44.756;2023-02-20T03:49:10;100459.28;;;3.50;64.33
75668;BME280;64266;48.798;44.756;2023-02-20T03:54:18;100452.50;;;3.41;64.41
75668;BME280;64266;48.798;44.756;2023-02-20T03:59:28;100444.53;;;3.34;64.77
75668;BME280;64266;48.798;44.756;2023-02-20T04:05:02;100437.19;;;3.29;63.92
75668;BME280;64266;48.798;44.756;2023-02-20T04:10:11;100480.06;;;3.51;63.82
75668;BME280;64266;48.798;44.756;2023-02-20T04:15:19;100464.94;;;3.39;63.69
75668;BME280;64266;48.798;44.756;2023-02-20T04:20:24;100459.09;;;3.14;64.88
75668;BME280;64266;48.798;44.756;2023-02-20T04:25:46;100451.53;;;3.19;64.84
75668;BME280;64266;48.798;44.756;2023-02-20T04:30:51;100455.72;;;3.05;64.16
75668;BME280;64266;48.798;44.756;2023-02-20T04:35:55;100383.63;;;2.57;65.41
75668;BME280;64266;48.798;44.756;2023-02-20T04:41:01;100450.97;;;3.09;65.23
75668;BME280;64266;48.798;44.756;2023-02-20T04:46:04;100441.59;;;2.92;63.61
75668;BME280;64266;48.798;44.756;2023-02-20T04:51:09;100416.31;;;2.61;65.44
75668;BME280;64266;48.798;44.756;2023-02-20T04:56:14;100462.94;;;2.81;65.81
75668;BME280;64266;48.798;44.756;2023-02-20T05:01:19;100477.16;;;3.09;65.75
75668;BME280;64266;48.798;44.756;2023-02-20T05:06:23;100481.44;;;3.24;64.19
75668;BME280;64266;48.798;44.756;2023-02-20T05:11:26;100471.81;;;3.40;65.12
75668;BME280;64266;48.798;44.756;2023-02-20T05:16:28;100470.75;;;3.63;64.39
75668;BME280;64266;48.798;44.756;2023-02-20T05:21:31;100463.81;;;3.56;62.79
75668;BME280;64266;48.798;44.756;2023-02-20T05:26:54;100496.47;;;3.82;63.92
75668;BME280;64266;48.798;44.756;2023-02-20T05:32:04;100334.19;;;2.77;63.66
75668;BME280;64266;48.798;44.756;2023-02-20T05:37:18;100380.22;;;3.09;64.21
75668;BME280;64266;48.798;44.756;2023-02-20T05:42:40;100396.88;;;3.31;63.48
75668;BME280;64266;48.798;44.756;2023-02-20T05:47:43;100434.97;;;3.70;63.02
75668;BME280;64266;48.798;44.756;2023-02-20T05:52:47;100443.38;;;3.95;63.76
75668;BME280;64266;48.798;44.756;2023-02-20T05:57:50;100415.13;;;3.97;63.25
75668;BME280;64266;48.798;44.756;2023-02-20T06:02:53;100403.06;;;4.32;62.57
75668;BME280;64266;48.798;44.756;2023-02-20T06:07:57;100437.34;;;4.87;62.34
75668;BME280;64266;48.798;44.756;2023-02-20T06:13:00;100419.69;;;5.03;61.58
75668;BME280;64266;48.798;44.756;2023-02-20T06:18:20;100393.72;;;5.14;60.30
75668;BME280;64266;48.798;44.756;2023-02-20T06:23:23;100408.00;;;5.33;60.67
75668;BME280;64266;48.798;44.756;2023-02-20T06:28:26;100424.34;;;5.56;60.13
75668;BME280;64266;48.798;44.756;2023-02-20T06:33:29;100435.38;;;5.73;59.88
75668;BME280;64266;48.798;44.756;2023-02-20T06:38:32;100420.44;;;5.45;60.05
75668;BME280;64266;48.798;44.756;2023-02-20T06:43:35;100428.84;;;5.62;59.62
75668;BME280;64266;48.798;44.756;2023-02-20T06:48:48;100421.38;;;5.93;58.87
75668;BME280;64266;48.798;44.756;2023-02-20T06:53:52;100404.56;;;6.55;59.08
75668;BME280;64266;48.798;44.756;2023-02-20T06:58:55;100399.91;;;6.64;56.85
75668;BME280;64266;48.798;44.756;2023-02-20T07:03:58;100405.41;;;6.75;55.47
75668;BME280;64266;48.798;44.756;2023-02-20T07:09:30;100386.00;;;6.16;58.41
75668;BME280;64266;48.798;44.756;2023-02-20T07:14:36;100365.38;;;5.72;59.38
75668;BME280;64266;48.798;44.756;2023-02-20T07:19:39;100390.84;;;5.71;60.57
75668;BME280;64266;48.798;44.756;2023-02-20T07:24:43;100210.72;;;4.72;60.27
75668;BME280;64266;48.798;44.756;2023-02-20T07:30:33;100281.38;;;5.29;59.79
75668;BME280;64266;48.798;44.756;2023-02-20T07:35:37;100283.75;;;5.59;60.71
75668;BME280;64266;48.798;44.756;2023-02-20T07:40:41;100406.13;;;6.36;60.03
75668;BME280;64266;48.798;44.756;2023-02-20T07:45:44;100392.41;;;6.54;59.82
75668;BME280;64266;48.798;44.756;2023-02-20T07:50:49;100341.72;;;6.45;58.96
75668;BME280;64266;48.798;44.756;2023-02-20T07:55:52;100370.72;;;6.59;58.42
75668;BME280;64266;48.798;44.756;2023-02-20T08:00:55;100384.66;;;6.33;60.15
75668;BME280;64266;48.798;44.756;2023-02-20T08:05:58;100327.88;;;5.63;60.06
75668;BME280;64266;48.798;44.756;2023-02-20T08:11:04;100347.53;;;5.67;60.89
75668;BME280;64266;48.798;44.756;2023-02-20T08:16:11;100214.88;;;4.88;61.88
75668;BME280;64266;48.798;44.756;2023-02-20T08:21:15;100179.81;;;4.74;62.25
75668;BME280;64266;48.798;44.756;2023-02-20T08:26:18;100322.22;;;5.66;61.85
75668;BME280;64266;48.798;44.756;2023-02-20T08:31:23;100355.88;;;5.77;60.94
75668;BME280;64266;48.798;44.756;2023-02-20T08:36:40;100271.69;;;5.30;62.27
75668;BME280;64266;48.798;44.756;2023-02-20T08:47:47;100323.41;;;6.05;60.70
75668;BME280;64266;48.798;44.756;2023-02-20T08:52:57;100247.69;;;5.93;60.74
75668;BME280;64266;48.798;44.756;2023-02-20T08:58:41;100222.56;;;5.97;59.57
75668;BME280;64266;48.798;44.756;2023-02-20T09:03:45;100220.38;;;6.21;59.41
75668;BME280;64266;48.798;44.756;2023-02-20T09:08:49;100156.13;;;5.76;59.92
75668;BME280;64266;48.798;44.756;2023-02-20T09:13:53;100194.25;;;6.26;57.75
75668;BME280;64266;48.798;44.756;2023-02-20T09:18:57;100213.47;;;6.52;58.34
75668;BME280;64266;48.798;44.756;2023-02-20T09:24:04;100268.38;;;6.95;59.72
75668;BME280;64266;48.798;44.756;2023-02-20T09:29:10;100270.91;;;7.28;59.45
75668;BME280;64266;48.798;44.756;2023-02-20T09:34:25;100222.88;;;7.19;58.62
75668;BME280;64266;48.798;44.756;2023-02-20T09:39:28;100220.16;;;7.32;57.61
75668;BME280;64266;48.798;44.756;2023-02-20T09:45:01;100186.16;;;7.18;57.09
75668;BME280;64266;48.798;44.756;2023-02-20T09:50:13;100109.88;;;6.78;56.23
75668;BME280;64266;48.798;44.756;2023-02-20T09:55:20;100169.03;;;6.89;55.96
75668;BME280;64266;48.798;44.756;2023-02-20T10:00:33;100145.56;;;6.68;57.71
75668;BME280;64266;48.798;44.756;2023-02-20T10:05:41;100169.06;;;6.69;56.86
75668;BME280;64266;48.798;44.756;2023-02-20T10:10:51;100220.88;;;7.01;57.76
75668;BME280;64266;48.798;44.756;2023-02-20T10:16:21;100220.72;;;6.83;59.21
75668;BME280;64266;48.798;44.756;2023-02-20T10:32:38;100217.31;;;6.43;59.68
75668;BME280;64266;48.798;44.756;2023-02-20T10:37:50;100126.78;;;5.72;60.00
75668;BME280;64266;48.798;44.756;2023-02-20T10:43:11;100223.63;;;6.29;59.92
75668;BME280;64266;48.798;44.756;2023-02-20T10:48:29;100064.66;;;5.32;61.19
75668;BME280;64266;48.798;44.756;2023-02-20T10:53:54;100121.28;;;5.54;60.51
75668;BME280;64266;48.798;44.756;2023-02-20T10:59:07;100151.31;;;5.92;60.02
75668;BME280;64266;48.798;44.756;2023-02-20T11:04:16;100139.38;;;5.96;60.67
75668;BME280;64266;48.798;44.756;2023-02-20T11:09:33;100073.16;;;5.73;60.56
75668;BME280;64266;48.798;44.756;2023-02-20T11:14:43;100082.09;;;5.85;59.69
75668;BME280;64266;48.798;44.756;2023-02-20T11:19:50;100188.13;;;6.65;60.23
75668;BME280;64266;48.798;44.756;2023-02-20T11:25:14;100191.13;;;6.88;60.28
75668;BME280;64266;48.798;44.756;2023-02-20T11:30:31;100087.53;;;6.17;59.28
75668;BME280;64266;48.798;44.756;2023-02-20T11:35:57;100186.00;;;7.06;59.32
75668;BME280;64266;48.798;44.756;2023-02-20T11:42:14;100043.16;;;6.27;57.18
75668;BME280;64266;48.798;44.756;2023-02-20T11:47:43;100010.41;;;6.03;58.56
75668;BME280;64266;48.798;44.756;2023-02-20T11:53:00;100146.34;;;6.81;57.95
75668;BME280;64266;48.798;44.756;2023-02-20T11:58:27;100142.72;;;6.69;58.17
75668;BME280;64266;48.798;44.756;2023-02-20T12:03:36;100135.84;;;6.68;58.22
75668;BME280;64266;48.798;44.756;2023-02-20T12:08:50;100195.13;;;7.03;57.75
75668;BME280;64266;48.798;44.756;2023-02-20T12:14:00;100131.44;;;6.49;58.40
75668;BME280;64266;48.798;44.756;2023-02-20T12:19:13;100215.97;;;7.12;57.63
75668;BME280;64266;48.798;44.756;2023-02-20T12:24:29;100213.19;;;7.00;57.60
75668;BME280;64266;48.798;44.756;2023-02-20T12:48:29;100097.25;;;6.23;58.60
75668;BME280;64266;48.798;44.756;2023-02-20T13:06:24;100130.44;;;5.84;58.73
75668;BME280;64266;48.798;44.756;2023-02-20T13:11:40;100167.72;;;6.08;59.66
75668;BME280;64266;48.798;44.756;2023-02-20T13:23:43;100194.22;;;6.06;59.11
75668;BME280;64266;48.798;44.756;2023-02-20T13:28:48;100260.09;;;6.52;58.86
75668;BME280;64266;48.798;44.756;2023-02-20T13:44:44;100244.88;;;6.08;61.91
75668;BME280;64266;48.798;44.756;2023-02-20T14:00:55;100079.13;;;4.95;61.50
75668;BME280;64266;48.798;44.756;2023-02-20T14:06:06;100224.94;;;5.79;62.80
75668;BME280;64266;48.798;44.756;2023-02-20T14:11:11;100149.75;;;5.31;62.93
75668;BME280;64266;48.798;44.756;2023-02-20T14:16:36;100159.50;;;5.37;62.45
75668;BME280;64266;48.798;44.756;2023-02-20T14:21:42;100218.00;;;5.59;62.77
75668;BME280;64266;48.798;44.756;2023-02-20T14:26:49;100211.28;;;5.43;63.32
75668;BME280;64266;48.798;44.756;2023-02-20T14:32:24;100226.47;;;5.54;63.54
75668;BME280;64266;48.798;44.756;2023-02-20T14:39:12;100229.28;;;5.46;64.24
75668;BME280;64266;48.798;44.756;2023-02-20T14:44:20;100203.69;;;5.20;63.90
75668;BME280;64266;48.798;44.756;2023-02-20T14:56:36;100234.50;;;5.33;64.03
75668;BME280;64266;48.798;44.756;2023-02-20T15:09:42;100241.75;;;5.24;65.15
75668;BME280;64266;48.798;44.756;2023-02-20T15:14:56;100207.41;;;4.91;64.72
75668;BME280;64266;48.798;44.756;2023-02-20T15:26:35;100227.03;;;4.96;64.10
75668;BME280;64266;48.798;44.756;2023-02-20T15:31:40;100235.16;;;5.01;64.72
75668;BME280;64266;48.798;44.756;2023-02-20T15:36:45;100245.66;;;5.01;64.78
75668;BME280;64266;48.798;44.756;2023-02-20T15:41:49;100174.56;;;4.40;65.54
75668;BME280;64266;48.798;44.756;2023-02-20T15:47:04;100235.38;;;4.71;64.88
75668;BME280;64266;48.798;44.756;2023-02-20T15:52:14;100220.31;;;4.52;64.88
75668;BME280;64266;48.798;44.756;2023-02-20T15:57:18;100281.03;;;4.70;64.06
75668;BME280;64266;48.798;44.756;2023-02-20T16:02:21;100155.22;;;3.92;65.36
75668;BME280;64266;48.798;44.756;2023-02-20T16:13:34;100269.44;;;4.37;64.40
75668;BME280;64266;48.798;44.756;2023-02-20T16:18:43;100270.19;;;4.31;63.87
75668;BME280;64266;48.798;44.756;2023-02-20T16:23:47;100274.38;;;4.25;63.69
75668;BME280;64266;48.798;44.756;2023-02-20T16:29:16;100268.69;;;4.22;64.85
75668;BME280;64266;48.798;44.756;2023-02-20T16:34:27;100260.06;;;3.86;65.19
75668;BME280;64266;48.798;44.756;2023-02-20T16:39:31;100286.81;;;3.96;65.35
75668;BME280;64266;48.798;44.756;2023-02-20T16:44:42;100152.06;;;3.18;65.35
75668;BME280;64266;48.798;44.756;2023-02-20T16:49:47;100256.63;;;3.85;65.19
75668;BME280;64266;48.798;44.756;2023-02-20T16:54:50;100257.03;;;3.67;65.05
75668;BME280;64266;48.798;44.756;2023-02-20T16:59:55;100273.66;;;3.74;65.17
75668;BME280;64266;48.798;44.756;2023-02-20T17:05:05;100267.91;;;3.64;65.14
75668;BME280;64266;48.798;44.756;2023-02-20T17:10:10;100311.19;;;3.75;65.03
75668;BME280;64266;48.798;44.756;2023-02-20T17:15:15;100236.59;;;3.27;64.69
75668;BME280;64266;48.798;44.756;2023-02-20T17:20:45;100302.97;;;3.63;65.15
75668;BME280;64266;48.798;44.756;2023-02-20T17:25:48;100206.38;;;2.81;64.54
75668;BME280;64266;48.798;44.756;2023-02-20T17:30:52;100154.53;;;2.47;64.73
75668;BME280;64266;48.798;44.756;2023-02-20T17:35:56;100148.78;;;2.51;63.89
75668;BME280;64266;48.798;44.756;2023-02-20T17:40:58;100303.81;;;3.35;63.72
75668;BME280;64266;48.798;44.756;2023-02-20T17:46:03;100290.53;;;3.21;64.11
75668;BME280;64266;48.798;44.756;2023-02-20T17:51:06;100319.72;;;3.33;63.06
75668;BME280;64266;48.798;44.756;2023-02-20T17:56:14;100324.13;;;3.33;63.20
75668;BME280;64266;48.798;44.756;2023-02-20T18:01:17;100334.25;;;3.36;63.63
75668;BME280;64266;48.798;44.756;2023-02-20T18:06:20;100311.75;;;3.26;63.48
75668;BME280;64266;48.798;44.756;2023-02-20T18:11:23;100321.16;;;3.21;63.00
75668;BME280;64266;48.798;44.756;2023-02-20T18:16:30;100339.59;;;3.13;62.63
75668;BME280;64266;48.798;44.756;2023-02-20T18:21:35;100318.16;;;2.95;62.21
75668;BME280;64266;48.798;44.756;2023-02-20T18:26:42;100204.19;;;2.03;62.02
75668;BME280;64266;48.798;44.756;2023-02-20T18:38:06;100320.94;;;2.79;61.92
75668;BME280;64266;48.798;44.756;2023-02-20T18:43:13;100244.47;;;2.31;61.91
75668;BME280;64266;48.798;44.756;2023-02-20T18:48:15;100338.28;;;2.80;61.33
75668;BME280;64266;48.798;44.756;2023-02-20T18:53:20;100298.47;;;2.47;61.29
75668;BME280;64266;48.798;44.756;2023-02-20T18:58:23;100342.88;;;2.78;60.92
75668;BME280;64266;48.798;44.756;2023-02-20T19:03:28;100334.75;;;2.72;60.30
75668;BME280;64266;48.798;44.756;2023-02-20T19:08:31;100334.16;;;2.62;59.87
75668;BME280;64266;48.798;44.756;2023-02-20T19:13:34;100308.09;;;2.46;60.39
75668;BME280;64266;48.798;44.756;2023-02-20T19:19:04;100319.75;;;2.44;59.70
75668;BME280;64266;48.798;44.756;2023-02-20T19:24:09;100283.66;;;2.16;59.24
75668;BME280;64266;48.798;44.756;2023-02-20T19:29:11;100276.88;;;2.30;59.13
75668;BME280;64266;48.798;44.756;2023-02-20T19:40:57;100325.25;;;2.71;58.97
75668;BME280;64266;48.798;44.756;2023-02-20T19:46:00;100332.03;;;2.81;59.33
75668;BME280;64266;48.798;44.756;2023-02-20T19:51:07;100338.63;;;2.77;59.57
75668;BME280;64266;48.798;44.756;2023-02-20T19:56:10;100318.81;;;2.59;59.21
75668;BME280;64266;48.798;44.756;2023-02-20T20:01:16;100243.13;;;2.12;58.81
75668;BME280;64266;48.798;44.756;2023-02-20T20:06:23;100316.75;;;2.69;58.04
75668;BME280;64266;48.798;44.756;2023-02-20T20:11:27;100325.38;;;2.55;58.97
75668;BME280;64266;48.798;44.756;2023-02-20T20:16:29;100307.88;;;2.56;58.24
75668;BME280;64266;48.798;44.756;2023-02-20T20:21:36;100181.78;;;1.63;58.31
75668;BME280;64266;48.798;44.756;2023-02-20T20:26:40;100280.88;;;2.55;57.91
75668;BME280;64266;48.798;44.756;2023-02-20T20:31:46;100188.31;;;1.82;58.18
75668;BME280;64266;48.798;44.756;2023-02-20T20:36:49;100200.75;;;2.02;59.20
75668;BME280;64266;48.798;44.756;2023-02-20T20:41:52;100276.72;;;2.46;57.75
75668;BME280;64266;48.798;44.756;2023-02-20T20:46:55;100295.72;;;2.63;57.63
75668;BME280;64266;48.798;44.756;2023-02-20T20:51:59;100243.38;;;2.26;57.63
75668;BME280;64266;48.798;44.756;2023-02-20T20:57:05;100235.25;;;2.21;57.71
75668;BME280;64266;48.798;44.756;2023-02-20T21:02:08;100103.38;;;1.40;58.42
75668;BME280;64266;48.798;44.756;2023-02-20T21:07:19;100285.50;;;2.53;57.71
75668;BME280;64266;48.798;44.756;2023-02-20T21:12:22;100285.47;;;2.39;57.45
75668;BME280;64266;48.798;44.756;2023-02-20T21:17:25;100306.03;;;2.42;57.08
75668;BME280;64266;48.798;44.756;2023-02-20T21:22:28;100290.09;;;2.51;57.91
75668;BME280;64266;48.798;44.756;2023-02-20T21:27:31;100249.34;;;2.34;58.14
75668;BME280;64266;48.798;44.756;2023-02-20T21:32:35;100263.19;;;2.43;57.08
75668;BME280;64266;48.798;44.756;2023-02-20T21:37:38;100239.19;;;2.16;56.43
75668;BME280;64266;48.798;44.756;2023-02-20T21:42:45;100231.53;;;2.15;57.69
75668;BME280;64266;48.798;44.756;2023-02-20T21:48:06;100203.84;;;2.06;57.27
75668;BME280;64266;48.798;44.756;2023-02-20T21:53:09;100269.41;;;2.42;57.41
75668;BME280;64266;48.798;44.756;2023-02-20T21:58:17;100261.09;;;2.38;57.24
75668;BME280;64266;48.798;44.756;2023-02-20T22:03:21;100282.66;;;2.40;57.54
75668;BME280;64266;48.798;44.756;2023-02-20T22:08:25;100246.19;;;2.24;56.82
75668;BME280;64266;48.798;44.756;2023-02-20T22:13:47;100277.91;;;2.21;57.89
75668;BME280;64266;48.798;44.756;2023-02-20T22:19:11;100238.34;;;2.01;58.13
75668;BME280;64266;48.798;44.756;2023-02-20T22:24:36;100192.09;;;1.79;56.90
75668;BME280;64266;48.798;44.756;2023-02-20T22:29:59;100204.00;;;1.82;58.01
75668;BME280;64266;48.798;44.756;2023-02-20T22:35:21;100202.94;;;1.91;57.27
75668;BME280;64266;48.798;44.756;2023-02-20T22:40:43;100192.44;;;1.76;57.87
75668;BME280;64266;48.798;44.756;2023-02-20T22:46:07;100248.28;;;2.06;58.07
75668;BME280;64266;48.798;44.756;2023-02-20T22:51:29;100260.19;;;2.08;58.85
75668;BME280;64266;48.798;44.756;2023-02-20T22:56:51;100242.72;;;2.09;58.87
75668;BME280;64266;48.798;44.756;2023-02-20T23:02:13;100225.69;;;1.90;58.12
75668;BME280;64266;48.798;44.756;2023-02-20T23:07:35;100227.94;;;1.93;57.22
75668;BME280;64266;48.798;44.756;2023-02-20T23:12:57;100244.13;;;1.89;58.20
75668;BME280;64266;48.798;44.756;2023-02-20T23:18:19;100214.16;;;1.77;58.64
75668;BME280;64266;48.798;44.756;2023-02-20T23:23:40;100184.69;;;1.60;59.12
75668;BME280;64266;48.798;44.756;2023-02-20T23:29:02;100220.38;;;1.98;57.20
75668;BME280;64266;48.798;44.756;2023-02-20T23:34:24;100123.63;;;1.38;57.22
75668;BME280;64266;48.798;44.756;2023-02-20T23:39:45;100219.97;;;1.87;57.76
75668;BME280;64266;48.798;44.756;2023-02-20T23:45:07;100218.56;;;1.76;57.67
75668;BME280;64266;48.798;44.756;2023-02-20T23:50:29;100209.91;;;1.76;58.01
75668;BME280;64266;48.798;44.756;2023-02-20T23:55:51;100198.59;;;1.60;57.83
